sensor_id;sensor_type;location;lat;lon;timestamp;P1;durP1;ratioP1;P2;durP2;ratioP2
12480;SDS011;6305;48.398;11.762;2022-10-17T00:00:47;13.45;;;8.85;;
12480;SDS011;6305;48.398;11.762;2022-10-17T00:03:14;13.70;;;8.93;;
12480;SDS011;6305;48.398;11.762;2022-10-17T00:05:44;14.23;;;9.30;;
12480;SDS011;6305;48.398;11.762;2022-10-17T00:08:16;15.73;;;9.85;;
12480;SDS011;6305;48.398;11.762;2022-10-17T00:10:45;14.75;;;8.98;;
12480;SDS011;6305;48.398;11.762;2022-10-17T00:13:21;14.15;;;9.07;;
12480;SDS011;6305;48.398;11.762;2022-10-17T00:15:48;13.20;;;9.00;;
12480;SDS011;6305;48.398;11.762;2022-10-17T00:18:15;13.50;;;9.23;;
12480;SDS011;6305;48.398;11.762;2022-10-17T00:20:42;18.90;;;9.45;;
12480;SDS011;6305;48.398;11.762;2022-10-17T00:23:10;13.70;;;9.05;;
12480;SDS011;6305;48.398;11.762;2022-10-17T00:25:37;13.23;;;9.23;;
12480;SDS011;6305;48.398;11.762;2022-10-17T00:28:07;16.92;;;9.85;;
12480;SDS011;6305;48.398;11.762;2022-10-17T00:30:34;17.98;;;10.25;;
12480;SDS011;6305;48.398;11.762;2022-10-17T00:33:02;16.35;;;9.05;;
12480;SDS011;6305;48.398;11.762;2022-10-17T00:35:29;14.90;;;8.85;;
12480;SDS011;6305;48.398;11.762;2022-10-17T00:37:58;14.63;;;9.73;;
12480;SDS011;6305;48.398;11.762;2022-10-17T00:40:25;14.77;;;9.55;;
12480;SDS011;6305;48.398;11.762;2022-10-17T00:42:52;16.88;;;10.00;;
12480;SDS011;6305;48.398;11.762;2022-10-17T00:45:22;18.63;;;10.18;;
12480;SDS011;6305;48.398;11.762;2022-10-17T00:47:53;21.63;;;10.18;;
12480;SDS011;6305;48.398;11.762;2022-10-17T00:50:24;16.15;;;9.98;;
12480;SDS011;6305;48.398;11.762;2022-10-17T00:52:52;16.00;;;9.73;;
12480;SDS011;6305;48.398;11.762;2022-10-17T00:55:23;14.23;;;9.13;;
12480;SDS011;6305;48.398;11.762;2022-10-17T00:57:53;15.38;;;9.02;;
12480;SDS011;6305;48.398;11.762;2022-10-17T01:00:24;14.82;;;9.65;;
12480;SDS011;6305;48.398;11.762;2022-10-17T01:02:51;14.57;;;8.48;;
12480;SDS011;6305;48.398;11.762;2022-10-17T01:05:19;18.17;;;8.68;;
12480;SDS011;6305;48.398;11.762;2022-10-17T01:07:46;14.60;;;8.98;;
12480;SDS011;6305;48.398;11.762;2022-10-17T01:10:15;15.07;;;8.80;;
12480;SDS011;6305;48.398;11.762;2022-10-17T01:12:49;15.15;;;8.98;;
12480;SDS011;6305;48.398;11.762;2022-10-17T01:15:28;15.35;;;8.40;;
12480;SDS011;6305;48.398;11.762;2022-10-17T01:18:09;13.80;;;8.48;;
12480;SDS011;6305;48.398;11.762;2022-10-17T01:20:50;14.27;;;8.52;;
12480;SDS011;6305;48.398;11.762;2022-10-17T01:23:44;15.88;;;9.05;;
12480;SDS011;6305;48.398;11.762;2022-10-17T01:26:57;16.70;;;8.63;;
12480;SDS011;6305;48.398;11.762;2022-10-17T01:30:16;15.80;;;8.32;;
12480;SDS011;6305;48.398;11.762;2022-10-17T01:33:20;18.48;;;9.18;;
12480;SDS011;6305;48.398;11.762;2022-10-17T01:35:57;18.73;;;10.07;;
12480;SDS011;6305;48.398;11.762;2022-10-17T01:38:29;33.92;;;12.93;;
12480;SDS011;6305;48.398;11.762;2022-10-17T01:41:00;41.25;;;15.43;;
12480;SDS011;6305;48.398;11.762;2022-10-17T01:43:32;52.72;;;16.48;;
12480;SDS011;6305;48.398;11.762;2022-10-17T01:46:05;43.90;;;15.82;;
12480;SDS011;6305;48.398;11.762;2022-10-17T01:48:39;51.72;;;15.75;;
12480;SDS011;6305;48.398;11.762;2022-10-17T01:51:15;44.95;;;15.88;;
12480;SDS011;6305;48.398;11.762;2022-10-17T01:53:46;52.22;;;16.08;;
12480;SDS011;6305;48.398;11.762;2022-10-17T01:56:17;60.50;;;17.35;;
12480;SDS011;6305;48.398;11.762;2022-10-17T01:58:46;72.13;;;17.58;;
12480;SDS011;6305;48.398;11.762;2022-10-17T02:01:15;62.53;;;17.50;;
12480;SDS011;6305;48.398;11.762;2022-10-17T02:03:44;54.15;;;17.30;;
12480;SDS011;6305;48.398;11.762;2022-10-17T02:06:13;66.80;;;17.45;;
12480;SDS011;6305;48.398;11.762;2022-10-17T02:08:41;61.75;;;17.65;;
12480;SDS011;6305;48.398;11.762;2022-10-17T02:11:09;52.92;;;17.65;;
12480;SDS011;6305;48.398;11.762;2022-10-17T02:13:42;57.05;;;18.15;;
12480;SDS011;6305;48.398;11.762;2022-10-17T02:16:21;62.90;;;19.10;;
12480;SDS011;6305;48.398;11.762;2022-10-17T02:19:03;63.42;;;19.17;;
12480;SDS011;6305;48.398;11.762;2022-10-17T02:21:42;65.88;;;19.27;;
12480;SDS011;6305;48.398;11.762;2022-10-17T02:24:14;67.82;;;19.35;;
12480;SDS011;6305;48.398;11.762;2022-10-17T02:26:46;62.80;;;19.67;;
12480;SDS011;6305;48.398;11.762;2022-10-17T02:29:19;67.60;;;20.05;;
12480;SDS011;6305;48.398;11.762;2022-10-17T02:31:50;56.20;;;20.35;;
12480;SDS011;6305;48.398;11.762;2022-10-17T02:34:23;54.30;;;18.75;;
12480;SDS011;6305;48.398;11.762;2022-10-17T02:36:53;44.45;;;17.27;;
12480;SDS011;6305;48.398;11.762;2022-10-17T02:39:23;43.95;;;16.20;;
12480;SDS011;6305;48.398;11.762;2022-10-17T02:41:52;46.80;;;16.38;;
12480;SDS011;6305;48.398;11.762;2022-10-17T02:44:20;65.30;;;19.80;;
12480;SDS011;6305;48.398;11.762;2022-10-17T02:46:49;47.20;;;17.95;;
12480;SDS011;6305;48.398;11.762;2022-10-17T02:49:21;46.17;;;17.92;;
12480;SDS011;6305;48.398;11.762;2022-10-17T02:51:51;44.20;;;16.73;;
12480;SDS011;6305;48.398;11.762;2022-10-17T02:54:24;46.17;;;16.98;;
12480;SDS011;6305;48.398;11.762;2022-10-17T02:56:59;47.15;;;16.75;;
12480;SDS011;6305;48.398;11.762;2022-10-17T02:59:30;37.28;;;15.68;;
12480;SDS011;6305;48.398;11.762;2022-10-17T03:02:01;37.65;;;15.95;;
12480;SDS011;6305;48.398;11.762;2022-10-17T03:04:30;38.17;;;15.95;;
12480;SDS011;6305;48.398;11.762;2022-10-17T03:06:58;33.92;;;14.15;;
12480;SDS011;6305;48.398;11.762;2022-10-17T03:09:25;38.83;;;16.17;;
12480;SDS011;6305;48.398;11.762;2022-10-17T03:11:52;35.03;;;15.13;;
12480;SDS011;6305;48.398;11.762;2022-10-17T03:14:19;42.03;;;15.85;;
12480;SDS011;6305;48.398;11.762;2022-10-17T03:16:45;33.85;;;13.95;;
12480;SDS011;6305;48.398;11.762;2022-10-17T03:19:12;32.75;;;15.18;;
12480;SDS011;6305;48.398;11.762;2022-10-17T03:21:40;37.40;;;15.48;;
12480;SDS011;6305;48.398;11.762;2022-10-17T03:24:07;35.15;;;16.48;;
12480;SDS011;6305;48.398;11.762;2022-10-17T03:26:34;35.38;;;16.17;;
12480;SDS011;6305;48.398;11.762;2022-10-17T03:29:01;34.42;;;14.85;;
12480;SDS011;6305;48.398;11.762;2022-10-17T03:31:27;31.17;;;14.73;;
12480;SDS011;6305;48.398;11.762;2022-10-17T03:33:54;30.27;;;14.10;;
12480;SDS011;6305;48.398;11.762;2022-10-17T03:36:21;32.17;;;14.18;;
12480;SDS011;6305;48.398;11.762;2022-10-17T03:38:49;34.97;;;14.05;;
12480;SDS011;6305;48.398;11.762;2022-10-17T03:41:19;32.63;;;13.93;;
12480;SDS011;6305;48.398;11.762;2022-10-17T03:43:46;29.40;;;13.48;;
12480;SDS011;6305;48.398;11.762;2022-10-17T03:46:12;26.85;;;13.10;;
12480;SDS011;6305;48.398;11.762;2022-10-17T03:48:39;27.92;;;13.43;;
12480;SDS011;6305;48.398;11.762;2022-10-17T03:51:07;27.48;;;13.35;;
12480;SDS011;6305;48.398;11.762;2022-10-17T03:53:35;27.13;;;13.63;;
12480;SDS011;6305;48.398;11.762;2022-10-17T03:56:09;29.70;;;13.95;;
12480;SDS011;6305;48.398;11.762;2022-10-17T03:58:37;28.77;;;13.27;;
12480;SDS011;6305;48.398;11.762;2022-10-17T04:01:05;33.10;;;14.02;;
12480;SDS011;6305;48.398;11.762;2022-10-17T04:03:33;29.65;;;13.48;;
12480;SDS011;6305;48.398;11.762;2022-10-17T04:06:01;25.52;;;13.52;;
12480;SDS011;6305;48.398;11.762;2022-10-17T04:08:29;28.30;;;13.73;;
12480;SDS011;6305;48.398;11.762;2022-10-17T04:10:57;23.85;;;13.27;;
12480;SDS011;6305;48.398;11.762;2022-10-17T04:13:25;31.83;;;14.52;;
12480;SDS011;6305;48.398;11.762;2022-10-17T04:15:52;42.78;;;16.23;;
12480;SDS011;6305;48.398;11.762;2022-10-17T04:18:20;44.28;;;17.65;;
12480;SDS011;6305;48.398;11.762;2022-10-17T04:20:47;45.40;;;17.30;;
12480;SDS011;6305;48.398;11.762;2022-10-17T04:23:14;50.15;;;18.95;;
12480;SDS011;6305;48.398;11.762;2022-10-17T04:25:41;57.13;;;19.73;;
12480;SDS011;6305;48.398;11.762;2022-10-17T04:28:08;47.03;;;18.38;;
12480;SDS011;6305;48.398;11.762;2022-10-17T04:30:36;48.42;;;17.50;;
12480;SDS011;6305;48.398;11.762;2022-10-17T04:33:04;42.20;;;18.17;;
12480;SDS011;6305;48.398;11.762;2022-10-17T04:35:31;45.88;;;17.35;;
12480;SDS011;6305;48.398;11.762;2022-10-17T04:37:58;38.85;;;16.27;;
12480;SDS011;6305;48.398;11.762;2022-10-17T04:40:25;50.05;;;19.58;;
12480;SDS011;6305;48.398;11.762;2022-10-17T04:42:52;49.92;;;22.08;;
12480;SDS011;6305;48.398;11.762;2022-10-17T04:45:19;49.72;;;19.85;;
12480;SDS011;6305;48.398;11.762;2022-10-17T04:47:47;46.80;;;18.73;;
12480;SDS011;6305;48.398;11.762;2022-10-17T04:50:14;50.60;;;19.13;;
12480;SDS011;6305;48.398;11.762;2022-10-17T04:52:40;46.55;;;18.60;;
12480;SDS011;6305;48.398;11.762;2022-10-17T04:55:07;45.92;;;19.02;;
12480;SDS011;6305;48.398;11.762;2022-10-17T04:57:34;51.08;;;19.98;;
12480;SDS011;6305;48.398;11.762;2022-10-17T05:00:02;46.47;;;20.25;;
12480;SDS011;6305;48.398;11.762;2022-10-17T05:02:29;63.28;;;20.80;;
12480;SDS011;6305;48.398;11.762;2022-10-17T05:04:57;47.97;;;20.55;;
12480;SDS011;6305;48.398;11.762;2022-10-17T05:07:24;53.50;;;20.42;;
12480;SDS011;6305;48.398;11.762;2022-10-17T05:09:51;49.42;;;20.52;;
12480;SDS011;6305;48.398;11.762;2022-10-17T05:12:17;50.80;;;19.70;;
12480;SDS011;6305;48.398;11.762;2022-10-17T05:14:44;44.15;;;18.42;;
12480;SDS011;6305;48.398;11.762;2022-10-17T05:17:11;41.75;;;18.60;;
12480;SDS011;6305;48.398;11.762;2022-10-17T05:19:38;37.85;;;16.02;;
12480;SDS011;6305;48.398;11.762;2022-10-17T05:22:06;37.70;;;16.70;;
12480;SDS011;6305;48.398;11.762;2022-10-17T05:24:33;39.08;;;16.20;;
12480;SDS011;6305;48.398;11.762;2022-10-17T05:26:59;42.13;;;16.40;;
12480;SDS011;6305;48.398;11.762;2022-10-17T05:29:26;40.58;;;17.35;;
12480;SDS011;6305;48.398;11.762;2022-10-17T05:31:53;41.30;;;16.70;;
12480;SDS011;6305;48.398;11.762;2022-10-17T05:34:20;34.70;;;15.93;;
12480;SDS011;6305;48.398;11.762;2022-10-17T05:36:46;33.53;;;14.90;;
12480;SDS011;6305;48.398;11.762;2022-10-17T05:39:15;34.28;;;15.65;;
12480;SDS011;6305;48.398;11.762;2022-10-17T05:41:43;29.35;;;14.57;;
12480;SDS011;6305;48.398;11.762;2022-10-17T05:44:10;32.47;;;15.32;;
12480;SDS011;6305;48.398;11.762;2022-10-17T05:46:37;31.13;;;16.45;;
12480;SDS011;6305;48.398;11.762;2022-10-17T05:49:04;36.15;;;15.70;;
12480;SDS011;6305;48.398;11.762;2022-10-17T05:51:31;42.80;;;16.80;;
12480;SDS011;6305;48.398;11.762;2022-10-17T05:53:59;36.80;;;16.95;;
12480;SDS011;6305;48.398;11.762;2022-10-17T05:56:27;34.33;;;15.05;;
12480;SDS011;6305;48.398;11.762;2022-10-17T05:58:53;37.78;;;16.40;;
12480;SDS011;6305;48.398;11.762;2022-10-17T06:01:20;47.13;;;17.83;;
12480;SDS011;6305;48.398;11.762;2022-10-17T06:03:48;49.65;;;19.38;;
12480;SDS011;6305;48.398;11.762;2022-10-17T06:06:15;53.88;;;19.75;;
12480;SDS011;6305;48.398;11.762;2022-10-17T06:08:42;56.20;;;21.73;;
12480;SDS011;6305;48.398;11.762;2022-10-17T06:11:10;54.80;;;22.77;;
12480;SDS011;6305;48.398;11.762;2022-10-17T06:13:39;54.63;;;21.50;;
12480;SDS011;6305;48.398;11.762;2022-10-17T06:16:06;57.53;;;21.65;;
12480;SDS011;6305;48.398;11.762;2022-10-17T06:18:33;56.13;;;21.42;;
12480;SDS011;6305;48.398;11.762;2022-10-17T06:21:03;54.15;;;22.67;;
12480;SDS011;6305;48.398;11.762;2022-10-17T06:23:31;52.47;;;21.52;;
12480;SDS011;6305;48.398;11.762;2022-10-17T06:25:58;55.25;;;21.17;;
12480;SDS011;6305;48.398;11.762;2022-10-17T06:28:25;49.28;;;22.00;;
12480;SDS011;6305;48.398;11.762;2022-10-17T06:30:53;54.03;;;22.35;;
12480;SDS011;6305;48.398;11.762;2022-10-17T06:33:20;58.33;;;22.10;;
12480;SDS011;6305;48.398;11.762;2022-10-17T06:35:49;52.45;;;22.40;;
12480;SDS011;6305;48.398;11.762;2022-10-17T06:38:16;59.78;;;23.52;;
12480;SDS011;6305;48.398;11.762;2022-10-17T06:40:43;60.58;;;23.67;;
12480;SDS011;6305;48.398;11.762;2022-10-17T06:43:10;59.20;;;24.65;;
12480;SDS011;6305;48.398;11.762;2022-10-17T06:45:37;53.33;;;22.35;;
12480;SDS011;6305;48.398;11.762;2022-10-17T06:48:06;48.22;;;21.65;;
12480;SDS011;6305;48.398;11.762;2022-10-17T06:50:33;42.72;;;20.35;;
12480;SDS011;6305;48.398;11.762;2022-10-17T06:53:00;29.58;;;16.10;;
12480;SDS011;6305;48.398;11.762;2022-10-17T06:55:27;27.98;;;16.15;;
12480;SDS011;6305;48.398;11.762;2022-10-17T06:57:54;34.60;;;17.50;;
12480;SDS011;6305;48.398;11.762;2022-10-17T07:00:21;36.15;;;15.93;;
12480;SDS011;6305;48.398;11.762;2022-10-17T07:02:48;31.40;;;15.60;;
12480;SDS011;6305;48.398;11.762;2022-10-17T07:05:16;32.70;;;15.50;;
12480;SDS011;6305;48.398;11.762;2022-10-17T07:07:44;24.98;;;14.18;;
12480;SDS011;6305;48.398;11.762;2022-10-17T07:10:11;27.52;;;14.65;;
12480;SDS011;6305;48.398;11.762;2022-10-17T07:12:37;33.00;;;15.25;;
12480;SDS011;6305;48.398;11.762;2022-10-17T07:15:04;21.08;;;13.13;;
12480;SDS011;6305;48.398;11.762;2022-10-17T07:17:32;23.38;;;14.68;;
12480;SDS011;6305;48.398;11.762;2022-10-17T07:19:58;28.63;;;14.65;;
12480;SDS011;6305;48.398;11.762;2022-10-17T07:22:27;23.00;;;15.27;;
12480;SDS011;6305;48.398;11.762;2022-10-17T07:24:54;30.45;;;18.50;;
12480;SDS011;6305;48.398;11.762;2022-10-17T07:27:21;27.20;;;18.65;;
12480;SDS011;6305;48.398;11.762;2022-10-17T07:29:47;31.85;;;20.55;;
12480;SDS011;6305;48.398;11.762;2022-10-17T07:32:14;25.40;;;18.02;;
12480;SDS011;6305;48.398;11.762;2022-10-17T07:34:41;22.60;;;16.33;;
12480;SDS011;6305;48.398;11.762;2022-10-17T07:37:08;20.20;;;14.07;;
12480;SDS011;6305;48.398;11.762;2022-10-17T07:39:36;14.68;;;11.70;;
12480;SDS011;6305;48.398;11.762;2022-10-17T07:42:04;11.38;;;9.85;;
12480;SDS011;6305;48.398;11.762;2022-10-17T07:44:32;11.60;;;9.40;;
12480;SDS011;6305;48.398;11.762;2022-10-17T07:46:59;8.45;;;7.60;;
12480;SDS011;6305;48.398;11.762;2022-10-17T07:49:26;8.07;;;7.30;;
12480;SDS011;6305;48.398;11.762;2022-10-17T07:51:53;10.02;;;5.18;;
12480;SDS011;6305;48.398;11.762;2022-10-17T07:54:20;7.28;;;4.20;;
12480;SDS011;6305;48.398;11.762;2022-10-17T07:56:48;5.38;;;4.88;;
12480;SDS011;6305;48.398;11.762;2022-10-17T07:59:15;5.65;;;4.30;;
12480;SDS011;6305;48.398;11.762;2022-10-17T08:01:43;6.20;;;4.15;;
12480;SDS011;6305;48.398;11.762;2022-10-17T08:04:09;3.97;;;2.95;;
12480;SDS011;6305;48.398;11.762;2022-10-17T08:06:36;4.22;;;3.30;;
12480;SDS011;6305;48.398;11.762;2022-10-17T08:09:03;3.33;;;2.67;;
12480;SDS011;6305;48.398;11.762;2022-10-17T08:11:30;3.28;;;2.97;;
12480;SDS011;6305;48.398;11.762;2022-10-17T08:13:58;4.05;;;2.92;;
12480;SDS011;6305;48.398;11.762;2022-10-17T08:16:25;4.35;;;2.88;;
12480;SDS011;6305;48.398;11.762;2022-10-17T08:18:52;3.38;;;3.08;;
12480;SDS011;6305;48.398;11.762;2022-10-17T08:21:19;3.42;;;3.00;;
12480;SDS011;6305;48.398;11.762;2022-10-17T08:23:46;4.10;;;3.25;;
12480;SDS011;6305;48.398;11.762;2022-10-17T08:26:12;3.88;;;3.17;;
12480;SDS011;6305;48.398;11.762;2022-10-17T08:28:41;3.22;;;2.75;;
12480;SDS011;6305;48.398;11.762;2022-10-17T08:31:10;3.13;;;2.65;;
12480;SDS011;6305;48.398;11.762;2022-10-17T08:33:38;3.30;;;3.00;;
12480;SDS011;6305;48.398;11.762;2022-10-17T08:36:06;4.65;;;2.75;;
12480;SDS011;6305;48.398;11.762;2022-10-17T08:38:34;4.75;;;3.03;;
12480;SDS011;6305;48.398;11.762;2022-10-17T08:41:04;4.03;;;2.90;;
12480;SDS011;6305;48.398;11.762;2022-10-17T08:43:41;4.90;;;3.40;;
12480;SDS011;6305;48.398;11.762;2022-10-17T08:46:17;3.47;;;3.17;;
12480;SDS011;6305;48.398;11.762;2022-10-17T08:48:45;4.95;;;4.03;;
12480;SDS011;6305;48.398;11.762;2022-10-17T08:51:14;4.25;;;3.47;;
12480;SDS011;6305;48.398;11.762;2022-10-17T08:53:46;6.45;;;3.45;;
12480;SDS011;6305;48.398;11.762;2022-10-17T08:56:17;7.50;;;3.78;;
12480;SDS011;6305;48.398;11.762;2022-10-17T08:58:45;4.90;;;3.42;;
12480;SDS011;6305;48.398;11.762;2022-10-17T09:04:05;7.95;;;3.50;;
12480;SDS011;6305;48.398;11.762;2022-10-17T09:06:48;7.05;;;3.70;;
12480;SDS011;6305;48.398;11.762;2022-10-17T09:09:22;4.53;;;3.90;;
12480;SDS011;6305;48.398;11.762;2022-10-17T09:12:02;4.55;;;3.60;;
12480;SDS011;6305;48.398;11.762;2022-10-17T09:17:29;3.97;;;3.58;;
12480;SDS011;6305;48.398;11.762;2022-10-17T09:20:05;5.47;;;4.25;;
12480;SDS011;6305;48.398;11.762;2022-10-17T09:22:39;6.57;;;3.92;;
12480;SDS011;6305;48.398;11.762;2022-10-17T09:25:10;4.50;;;3.80;;
12480;SDS011;6305;48.398;11.762;2022-10-17T09:27:40;5.10;;;3.42;;
12480;SDS011;6305;48.398;11.762;2022-10-17T09:30:16;3.75;;;3.20;;
12480;SDS011;6305;48.398;11.762;2022-10-17T09:32:55;3.92;;;3.03;;
12480;SDS011;6305;48.398;11.762;2022-10-17T09:35:22;4.97;;;3.47;;
12480;SDS011;6305;48.398;11.762;2022-10-17T09:37:50;3.28;;;2.97;;
12480;SDS011;6305;48.398;11.762;2022-10-17T09:40:18;4.43;;;3.17;;
12480;SDS011;6305;48.398;11.762;2022-10-17T09:42:49;3.30;;;2.72;;
12480;SDS011;6305;48.398;11.762;2022-10-17T09:45:17;3.75;;;3.35;;
12480;SDS011;6305;48.398;11.762;2022-10-17T09:47:49;4.05;;;3.65;;
12480;SDS011;6305;48.398;11.762;2022-10-17T09:50:24;4.65;;;3.20;;
12480;SDS011;6305;48.398;11.762;2022-10-17T09:52:53;3.83;;;2.67;;
12480;SDS011;6305;48.398;11.762;2022-10-17T09:55:26;4.78;;;3.10;;
12480;SDS011;6305;48.398;11.762;2022-10-17T09:57:59;3.58;;;2.50;;
12480;SDS011;6305;48.398;11.762;2022-10-17T10:00:28;3.72;;;2.65;;
12480;SDS011;6305;48.398;11.762;2022-10-17T10:03:08;2.63;;;2.42;;
12480;SDS011;6305;48.398;11.762;2022-10-17T10:05:42;6.72;;;2.47;;
12480;SDS011;6305;48.398;11.762;2022-10-17T10:08:25;4.53;;;2.20;;
12480;SDS011;6305;48.398;11.762;2022-10-17T10:10:58;2.67;;;1.92;;
12480;SDS011;6305;48.398;11.762;2022-10-17T10:13:28;4.90;;;4.25;;
12480;SDS011;6305;48.398;11.762;2022-10-17T10:16:11;2.70;;;2.50;;
12480;SDS011;6305;48.398;11.762;2022-10-17T10:18:46;2.70;;;2.20;;
12480;SDS011;6305;48.398;11.762;2022-10-17T10:21:14;4.25;;;2.08;;
12480;SDS011;6305;48.398;11.762;2022-10-17T10:26:40;2.95;;;2.40;;
12480;SDS011;6305;48.398;11.762;2022-10-17T10:29:18;3.10;;;2.30;;
12480;SDS011;6305;48.398;11.762;2022-10-17T10:31:48;2.65;;;2.20;;
12480;SDS011;6305;48.398;11.762;2022-10-17T10:34:19;3.40;;;2.28;;
12480;SDS011;6305;48.398;11.762;2022-10-17T10:36:50;3.75;;;2.20;;
12480;SDS011;6305;48.398;11.762;2022-10-17T10:39:31;3.95;;;2.20;;
12480;SDS011;6305;48.398;11.762;2022-10-17T10:42:05;2.33;;;2.10;;
12480;SDS011;6305;48.398;11.762;2022-10-17T10:44:33;2.47;;;2.10;;
12480;SDS011;6305;48.398;11.762;2022-10-17T10:47:14;3.20;;;2.10;;
12480;SDS011;6305;48.398;11.762;2022-10-17T10:49:45;3.67;;;2.35;;
12480;SDS011;6305;48.398;11.762;2022-10-17T10:52:14;2.30;;;2.10;;
12480;SDS011;6305;48.398;11.762;2022-10-17T10:54:54;3.50;;;2.10;;
12480;SDS011;6305;48.398;11.762;2022-10-17T10:57:28;2.67;;;2.33;;
12480;SDS011;6305;48.398;11.762;2022-10-17T10:59:59;2.95;;;2.22;;
12480;SDS011;6305;48.398;11.762;2022-10-17T11:02:32;2.88;;;2.10;;
12480;SDS011;6305;48.398;11.762;2022-10-17T11:05:05;3.05;;;2.20;;
12480;SDS011;6305;48.398;11.762;2022-10-17T11:07:39;2.42;;;1.92;;
12480;SDS011;6305;48.398;11.762;2022-10-17T11:10:13;2.08;;;1.88;;
12480;SDS011;6305;48.398;11.762;2022-10-17T11:12:44;2.78;;;1.90;;
12480;SDS011;6305;48.398;11.762;2022-10-17T11:15:17;2.78;;;2.00;;
12480;SDS011;6305;48.398;11.762;2022-10-17T11:17:51;2.28;;;2.08;;
12480;SDS011;6305;48.398;11.762;2022-10-17T11:20:28;3.42;;;1.98;;
12480;SDS011;6305;48.398;11.762;2022-10-17T11:23:03;3.78;;;1.92;;
12480;SDS011;6305;48.398;11.762;2022-10-17T11:25:45;3.45;;;1.88;;
12480;SDS011;6305;48.398;11.762;2022-10-17T11:28:16;3.17;;;1.70;;
12480;SDS011;6305;48.398;11.762;2022-10-17T11:30:45;3.20;;;2.00;;
12480;SDS011;6305;48.398;11.762;2022-10-17T11:33:17;1.95;;;1.80;;
12480;SDS011;6305;48.398;11.762;2022-10-17T11:35:50;1.73;;;1.63;;
12480;SDS011;6305;48.398;11.762;2022-10-17T11:38:21;1.92;;;1.80;;
12480;SDS011;6305;48.398;11.762;2022-10-17T11:41:01;2.05;;;1.70;;
12480;SDS011;6305;48.398;11.762;2022-10-17T11:43:32;3.67;;;1.85;;
12480;SDS011;6305;48.398;11.762;2022-10-17T11:46:04;1.85;;;1.70;;
12480;SDS011;6305;48.398;11.762;2022-10-17T11:48:38;4.43;;;1.83;;
12480;SDS011;6305;48.398;11.762;2022-10-17T11:51:12;2.15;;;1.50;;
12480;SDS011;6305;48.398;11.762;2022-10-17T11:53:43;2.05;;;1.85;;
12480;SDS011;6305;48.398;11.762;2022-10-17T11:56:16;1.73;;;1.63;;
12480;SDS011;6305;48.398;11.762;2022-10-17T11:58:49;1.75;;;1.63;;
12480;SDS011;6305;48.398;11.762;2022-10-17T12:01:29;3.00;;;1.90;;
12480;SDS011;6305;48.398;11.762;2022-10-17T12:06:51;1.83;;;1.58;;
12480;SDS011;6305;48.398;11.762;2022-10-17T12:09:29;3.25;;;1.60;;
12480;SDS011;6305;48.398;11.762;2022-10-17T12:12:05;2.42;;;1.55;;
12480;SDS011;6305;48.398;11.762;2022-10-17T12:14:36;2.80;;;1.40;;
12480;SDS011;6305;48.398;11.762;2022-10-17T12:22:54;2.28;;;1.77;;
12480;SDS011;6305;48.398;11.762;2022-10-17T12:25:30;1.90;;;1.60;;
12480;SDS011;6305;48.398;11.762;2022-10-17T12:28:03;3.25;;;1.65;;
12480;SDS011;6305;48.398;11.762;2022-10-17T12:30:47;1.73;;;1.60;;
12480;SDS011;6305;48.398;11.762;2022-10-17T12:33:16;2.97;;;1.70;;
12480;SDS011;6305;48.398;11.762;2022-10-17T12:35:46;1.88;;;1.50;;
12480;SDS011;6305;48.398;11.762;2022-10-17T12:38:23;5.97;;;1.80;;
12480;SDS011;6305;48.398;11.762;2022-10-17T12:40:53;2.47;;;1.42;;
12480;SDS011;6305;48.398;11.762;2022-10-17T12:46:10;2.88;;;1.67;;
12480;SDS011;6305;48.398;11.762;2022-10-17T12:48:59;1.50;;;1.40;;
12480;SDS011;6305;48.398;11.762;2022-10-17T12:51:28;1.90;;;1.70;;
12480;SDS011;6305;48.398;11.762;2022-10-17T12:53:58;2.35;;;1.63;;
12480;SDS011;6305;48.398;11.762;2022-10-17T12:56:30;3.05;;;1.77;;
12480;SDS011;6305;48.398;11.762;2022-10-17T12:59:04;1.67;;;1.58;;
12480;SDS011;6305;48.398;11.762;2022-10-17T13:01:35;2.05;;;1.63;;
12480;SDS011;6305;48.398;11.762;2022-10-17T13:04:03;2.65;;;1.77;;
12480;SDS011;6305;48.398;11.762;2022-10-17T13:06:35;1.63;;;1.52;;
12480;SDS011;6305;48.398;11.762;2022-10-17T13:09:12;2.63;;;1.42;;
12480;SDS011;6305;48.398;11.762;2022-10-17T13:11:43;1.98;;;1.77;;
12480;SDS011;6305;48.398;11.762;2022-10-17T13:14:11;2.95;;;1.60;;
12480;SDS011;6305;48.398;11.762;2022-10-17T13:16:39;1.92;;;1.70;;
12480;SDS011;6305;48.398;11.762;2022-10-17T13:19:17;2.80;;;1.70;;
12480;SDS011;6305;48.398;11.762;2022-10-17T13:21:50;3.13;;;1.60;;
12480;SDS011;6305;48.398;11.762;2022-10-17T13:24:22;3.17;;;2.00;;
12480;SDS011;6305;48.398;11.762;2022-10-17T13:26:53;4.03;;;1.70;;
12480;SDS011;6305;48.398;11.762;2022-10-17T13:29:20;3.65;;;1.90;;
12480;SDS011;6305;48.398;11.762;2022-10-17T13:31:50;3.67;;;1.70;;
12480;SDS011;6305;48.398;11.762;2022-10-17T13:34:19;2.08;;;1.80;;
12480;SDS011;6305;48.398;11.762;2022-10-17T13:36:49;2.63;;;1.92;;
12480;SDS011;6305;48.398;11.762;2022-10-17T13:39:19;3.10;;;1.75;;
12480;SDS011;6305;48.398;11.762;2022-10-17T13:41:50;3.15;;;2.00;;
12480;SDS011;6305;48.398;11.762;2022-10-17T13:44:19;3.40;;;2.10;;
12480;SDS011;6305;48.398;11.762;2022-10-17T13:46:48;3.20;;;2.03;;
12480;SDS011;6305;48.398;11.762;2022-10-17T13:49:17;2.15;;;1.65;;
12480;SDS011;6305;48.398;11.762;2022-10-17T13:51:47;3.85;;;1.90;;
12480;SDS011;6305;48.398;11.762;2022-10-17T13:54:17;2.70;;;1.85;;
12480;SDS011;6305;48.398;11.762;2022-10-17T13:56:56;2.83;;;2.10;;
12480;SDS011;6305;48.398;11.762;2022-10-17T13:59:25;3.05;;;1.90;;
12480;SDS011;6305;48.398;11.762;2022-10-17T14:01:55;3.50;;;1.90;;
12480;SDS011;6305;48.398;11.762;2022-10-17T14:04:21;3.45;;;1.65;;
12480;SDS011;6305;48.398;11.762;2022-10-17T14:06:48;3.95;;;1.92;;
12480;SDS011;6305;48.398;11.762;2022-10-17T14:09:16;3.97;;;2.00;;
12480;SDS011;6305;48.398;11.762;2022-10-17T14:11:55;2.28;;;1.75;;
12480;SDS011;6305;48.398;11.762;2022-10-17T14:14:24;4.47;;;2.08;;
12480;SDS011;6305;48.398;11.762;2022-10-17T14:16:53;2.40;;;1.67;;
12480;SDS011;6305;48.398;11.762;2022-10-17T14:19:22;2.30;;;1.90;;
12480;SDS011;6305;48.398;11.762;2022-10-17T14:21:51;3.10;;;1.83;;
12480;SDS011;6305;48.398;11.762;2022-10-17T14:24:25;4.75;;;1.95;;
12480;SDS011;6305;48.398;11.762;2022-10-17T14:26:55;2.78;;;1.77;;
12480;SDS011;6305;48.398;11.762;2022-10-17T14:29:24;4.95;;;2.00;;
12480;SDS011;6305;48.398;11.762;2022-10-17T14:31:59;2.10;;;1.90;;
12480;SDS011;6305;48.398;11.762;2022-10-17T14:34:30;3.70;;;2.15;;
12480;SDS011;6305;48.398;11.762;2022-10-17T14:36:58;5.43;;;1.60;;
12480;SDS011;6305;48.398;11.762;2022-10-17T14:39:26;5.70;;;1.90;;
12480;SDS011;6305;48.398;11.762;2022-10-17T14:41:55;2.88;;;1.85;;
12480;SDS011;6305;48.398;11.762;2022-10-17T14:44:23;2.60;;;1.83;;
12480;SDS011;6305;48.398;11.762;2022-10-17T14:46:53;2.30;;;1.73;;
12480;SDS011;6305;48.398;11.762;2022-10-17T14:49:27;3.88;;;1.98;;
12480;SDS011;6305;48.398;11.762;2022-10-17T14:52:12;2.00;;;1.70;;
12480;SDS011;6305;48.398;11.762;2022-10-17T14:54:52;2.53;;;1.90;;
12480;SDS011;6305;48.398;11.762;2022-10-17T14:57:23;2.10;;;1.80;;
12480;SDS011;6305;48.398;11.762;2022-10-17T14:59:51;3.53;;;2.00;;
12480;SDS011;6305;48.398;11.762;2022-10-17T15:02:18;2.05;;;1.85;;
12480;SDS011;6305;48.398;11.762;2022-10-17T15:04:45;2.80;;;2.10;;
12480;SDS011;6305;48.398;11.762;2022-10-17T15:07:12;3.33;;;2.00;;
12480;SDS011;6305;48.398;11.762;2022-10-17T15:09:40;3.03;;;1.92;;
12480;SDS011;6305;48.398;11.762;2022-10-17T15:12:10;2.28;;;1.98;;
12480;SDS011;6305;48.398;11.762;2022-10-17T15:14:41;2.30;;;2.00;;